createdAt,value
2019-03-17T00:00:37.393Z,2.60
2019-03-17T00:03:06.838Z,1.93
2019-03-17T00:05:36.269Z,2.20
2019-03-17T00:08:05.807Z,2.90
2019-03-17T00:10:35.239Z,2.10
2019-03-17T00:13:04.712Z,3.70
2019-03-17T00:15:34.277Z,3.10
2019-03-17T00:18:03.727Z,2.43
2019-03-17T00:20:33.189Z,2.77
2019-03-17T00:23:02.633Z,4.93
2019-03-17T00:25:32.120Z,2.30
2019-03-17T00:28:01.554Z,2.90
2019-03-17T00:30:31.019Z,2.13
2019-03-17T00:33:00.466Z,3.33
2019-03-17T00:35:29.931Z,2.27
2019-03-17T00:37:59.386Z,3.80
2019-03-17T00:40:28.840Z,2.47
2019-03-17T00:42:58.285Z,5.27
2019-03-17T00:45:27.734Z,3.67
2019-03-17T00:47:57.181Z,3.50
2019-03-17T00:50:26.622Z,4.67
2019-03-17T00:52:58.152Z,2.80
2019-03-17T00:55:27.614Z,2.10
2019-03-17T00:57:59.500Z,2.17
2019-03-17T01:00:28.511Z,4.90
2019-03-17T01:02:58.257Z,3.47
2019-03-17T01:05:27.777Z,2.17
2019-03-17T01:07:58.956Z,2.10
2019-03-17T01:10:28.788Z,2.27
2019-03-17T01:12:58.228Z,3.20
2019-03-17T01:15:27.695Z,2.00
2019-03-17T01:17:57.505Z,2.07
2019-03-17T01:20:27.110Z,1.90
2019-03-17T01:22:56.575Z,1.93
2019-03-17T01:25:26.004Z,2.10
2019-03-17T01:27:55.439Z,1.60
2019-03-17T01:30:24.955Z,2.77
2019-03-17T01:32:54.393Z,2.23
2019-03-17T01:35:23.850Z,2.13
2019-03-17T01:37:53.301Z,3.10
2019-03-17T01:40:23.115Z,4.63
2019-03-17T01:42:52.630Z,5.63
2019-03-17T01:45:22.359Z,2.83
2019-03-17T01:47:51.921Z,2.30
2019-03-17T01:50:21.380Z,2.17
2019-03-17T01:52:50.803Z,4.50
2019-03-17T01:55:20.249Z,2.97
2019-03-17T01:57:49.696Z,2.90
2019-03-17T02:00:19.196Z,2.27
2019-03-17T02:02:48.658Z,2.03
2019-03-17T02:05:22.292Z,2.20
2019-03-17T02:07:49.551Z,3.20
2019-03-17T02:10:19.375Z,2.00
2019-03-17T02:12:48.982Z,3.43
2019-03-17T02:15:18.701Z,2.07
2019-03-17T02:17:48.789Z,2.13
2019-03-17T02:20:18.397Z,3.10
2019-03-17T02:22:48.009Z,2.60
2019-03-17T02:25:17.638Z,1.67
2019-03-17T02:27:47.561Z,2.13
2019-03-17T02:30:17.029Z,1.80
2019-03-17T02:32:46.473Z,2.17
2019-03-17T02:35:15.984Z,3.27
2019-03-17T02:37:45.749Z,1.80
2019-03-17T02:40:15.217Z,2.87
2019-03-17T02:42:44.815Z,2.40
2019-03-17T02:45:14.431Z,2.13
2019-03-17T02:47:43.896Z,2.00
2019-03-17T02:50:13.355Z,2.67
2019-03-17T02:52:43.011Z,2.30
2019-03-17T02:55:12.629Z,3.57
2019-03-17T02:57:42.142Z,3.70
2019-03-17T03:00:12.230Z,2.27
2019-03-17T03:02:41.825Z,3.33
2019-03-17T03:05:13.084Z,2.37
2019-03-17T03:07:42.918Z,3.20
2019-03-17T03:10:12.432Z,2.80
2019-03-17T03:12:41.905Z,2.93
2019-03-17T03:15:11.430Z,5.23
2019-03-17T03:17:41.038Z,3.27
2019-03-17T03:20:11.859Z,4.33
2019-03-17T03:22:41.266Z,2.77
2019-03-17T03:25:10.731Z,3.07
2019-03-17T03:27:40.161Z,2.80
2019-03-17T03:30:11.761Z,3.20
2019-03-17T03:32:41.553Z,3.00
2019-03-17T03:35:11.193Z,2.80
2019-03-17T03:37:40.601Z,3.70
2019-03-17T03:40:11.715Z,5.70
2019-03-17T03:42:41.314Z,4.00
2019-03-17T03:45:12.127Z,3.30
2019-03-17T03:47:41.548Z,4.73
2019-03-17T03:50:11.847Z,4.23
2019-03-17T03:52:41.284Z,4.57
2019-03-17T03:55:10.955Z,4.33
2019-03-17T03:57:40.518Z,3.87
2019-03-17T04:00:15.225Z,4.37
2019-03-17T04:02:45.156Z,5.77
2019-03-17T04:05:14.622Z,4.53
2019-03-17T04:07:44.233Z,5.90
2019-03-17T04:10:13.689Z,6.73
2019-03-17T04:12:43.295Z,4.77
2019-03-17T04:15:13.236Z,6.57
2019-03-17T04:17:42.678Z,6.10
2019-03-17T04:20:12.494Z,4.53
2019-03-17T04:22:41.931Z,5.60
2019-03-17T04:25:13.105Z,7.10
2019-03-17T04:27:42.542Z,4.80
2019-03-17T04:30:12.003Z,5.33
2019-03-17T04:32:41.446Z,6.20
2019-03-17T04:35:10.915Z,6.03
2019-03-17T04:37:40.707Z,5.20
2019-03-17T04:40:10.443Z,7.20
2019-03-17T04:42:40.082Z,7.27
2019-03-17T04:45:09.788Z,9.70
2019-03-17T04:47:39.233Z,6.07
2019-03-17T04:50:09.359Z,5.67
2019-03-17T04:52:38.883Z,9.00
2019-03-17T04:55:08.486Z,8.17
2019-03-17T04:57:37.945Z,6.23
2019-03-17T05:00:12.251Z,8.33
2019-03-17T05:02:41.682Z,7.43
2019-03-17T05:05:11.192Z,8.00
2019-03-17T05:07:40.836Z,6.50
2019-03-17T05:10:10.757Z,6.97
2019-03-17T05:12:40.221Z,12.37
2019-03-17T05:15:10.809Z,8.70
2019-03-17T05:17:40.656Z,9.27
2019-03-17T05:20:13.061Z,7.43
2019-03-17T05:22:42.507Z,9.40
2019-03-17T05:25:12.252Z,10.87
2019-03-17T05:27:41.708Z,8.30
2019-03-17T05:30:12.796Z,7.60
2019-03-17T05:32:42.630Z,9.40
2019-03-17T05:35:12.141Z,7.80
2019-03-17T05:37:41.632Z,8.40
2019-03-17T05:40:11.202Z,7.70
2019-03-17T05:42:41.185Z,8.53
2019-03-17T05:45:10.794Z,9.23
2019-03-17T05:47:40.230Z,8.90
2019-03-17T05:50:11.294Z,10.03
2019-03-17T05:52:40.825Z,9.50
2019-03-17T05:55:10.547Z,8.53
2019-03-17T05:57:40.111Z,8.63
2019-03-17T06:00:17.401Z,7.17
2019-03-17T06:02:50.265Z,9.63
2019-03-17T06:05:19.716Z,9.20
2019-03-17T06:07:49.169Z,8.77
2019-03-17T06:10:18.595Z,8.00
2019-03-17T06:12:48.032Z,8.67
2019-03-17T06:15:17.473Z,7.77
2019-03-17T06:17:47.244Z,6.73
2019-03-17T06:20:16.754Z,9.07
2019-03-17T06:22:46.585Z,7.03
2019-03-17T06:25:16.020Z,6.80
2019-03-17T06:27:45.485Z,7.67
2019-03-17T06:30:15.197Z,10.43
2019-03-17T06:32:44.674Z,5.63
2019-03-17T06:35:14.205Z,7.53
2019-03-17T06:37:43.662Z,9.00
2019-03-17T06:40:13.785Z,6.67
2019-03-17T06:42:43.231Z,5.63
2019-03-17T06:45:12.671Z,6.33
2019-03-17T06:47:42.122Z,6.90
2019-03-17T06:50:17.378Z,4.63
2019-03-17T06:52:46.836Z,5.00
2019-03-17T06:55:37.192Z,5.30
2019-03-17T06:58:08.060Z,4.93
2019-03-17T07:00:37.517Z,4.53
2019-03-17T07:03:06.977Z,5.43
2019-03-17T07:05:36.684Z,4.70
2019-03-17T07:08:06.312Z,6.03
2019-03-17T07:10:35.759Z,6.40
2019-03-17T07:13:05.221Z,5.43
2019-03-17T07:15:34.684Z,5.03
2019-03-17T07:18:04.157Z,5.23
2019-03-17T07:20:33.695Z,5.07
2019-03-17T07:23:03.164Z,4.37
2019-03-17T07:25:32.646Z,4.37
2019-03-17T07:28:02.069Z,5.70
2019-03-17T07:30:31.801Z,4.47
2019-03-17T07:33:01.255Z,4.97
2019-03-17T07:35:30.710Z,4.93
2019-03-17T07:38:00.222Z,5.43
2019-03-17T07:40:29.971Z,5.90
2019-03-17T07:42:59.429Z,4.40
2019-03-17T07:45:29.044Z,4.00
2019-03-17T07:47:58.509Z,4.23
2019-03-17T07:50:27.972Z,3.53
2019-03-17T07:52:57.416Z,5.33
2019-03-17T07:55:26.876Z,2.93
2019-03-17T07:57:56.318Z,3.90
2019-03-17T08:00:31.771Z,3.87
2019-03-17T08:02:57.132Z,2.70
2019-03-17T08:05:26.585Z,3.90
2019-03-17T08:08:08.234Z,2.80
2019-03-17T08:10:27.483Z,3.63
2019-03-17T08:12:56.953Z,3.63
2019-03-17T08:15:26.698Z,3.63
2019-03-17T08:17:56.208Z,5.13
2019-03-17T08:20:25.988Z,3.25
2019-03-17T08:22:55.442Z,1.90
2019-03-17T08:25:24.922Z,2.87
2019-03-17T08:27:54.360Z,2.02
2019-03-17T08:30:23.820Z,1.90
2019-03-17T08:32:53.304Z,1.37
2019-03-17T08:35:23.725Z,2.20
2019-03-17T08:37:53.203Z,1.42
2019-03-17T08:40:22.652Z,2.50
2019-03-17T08:42:52.097Z,1.37
2019-03-17T08:45:21.626Z,1.60
2019-03-17T08:47:57.752Z,1.33
2019-03-17T08:50:22.640Z,1.40
2019-03-17T08:52:53.454Z,1.67
2019-03-17T08:55:22.847Z,2.57
2019-03-17T08:57:52.329Z,2.13
2019-03-17T09:00:21.786Z,4.17
2019-03-17T09:02:51.239Z,2.87
2019-03-17T09:05:20.692Z,1.90
2019-03-17T09:07:50.423Z,2.43
2019-03-17T09:10:20.214Z,2.05
2019-03-17T09:12:49.692Z,2.53
2019-03-17T09:15:19.148Z,2.37
2019-03-17T09:17:48.973Z,2.00
2019-03-17T09:20:18.682Z,1.83
2019-03-17T09:22:48.486Z,2.00
2019-03-17T09:25:18.401Z,3.10
2019-03-17T09:27:47.857Z,2.83
2019-03-17T09:30:21.119Z,2.67
2019-03-17T09:32:50.577Z,1.83
2019-03-17T09:35:20.034Z,1.77
2019-03-17T09:37:49.508Z,2.30
2019-03-17T09:40:19.136Z,1.80
2019-03-17T09:42:48.603Z,2.90
2019-03-17T09:45:18.044Z,1.80
2019-03-17T09:47:47.521Z,2.00
2019-03-17T09:50:20.560Z,3.57
2019-03-17T09:52:50.350Z,3.00
2019-03-17T09:55:19.790Z,3.43
2019-03-17T09:57:49.233Z,1.57
2019-03-17T10:00:19.912Z,3.30
2019-03-17T10:02:49.383Z,1.70
2019-03-17T10:05:18.818Z,2.07
2019-03-17T10:07:48.641Z,2.87
2019-03-17T10:10:20.317Z,3.90
2019-03-17T10:12:50.233Z,3.63
2019-03-17T10:15:20.254Z,2.30
2019-03-17T10:17:49.786Z,2.17
2019-03-17T10:20:22.285Z,3.50
2019-03-17T10:22:51.754Z,2.17
2019-03-17T10:25:21.210Z,2.13
2019-03-17T10:27:50.961Z,2.50
2019-03-17T10:30:21.238Z,3.37
2019-03-17T10:32:50.687Z,1.73
2019-03-17T10:35:20.453Z,2.60
2019-03-17T10:37:50.266Z,2.40
2019-03-17T10:40:20.870Z,2.63
2019-03-17T10:42:50.808Z,3.23
2019-03-17T10:45:20.718Z,4.13
2019-03-17T10:47:50.629Z,1.70
2019-03-17T10:50:21.339Z,2.30
2019-03-17T10:52:51.088Z,2.60
2019-03-17T10:55:20.533Z,3.67
2019-03-17T10:57:50.308Z,2.37
2019-03-17T11:00:24.539Z,2.40
2019-03-17T11:02:53.969Z,3.30
2019-03-17T11:05:23.514Z,1.87
2019-03-17T11:07:52.961Z,4.23
2019-03-17T11:10:22.402Z,6.30
2019-03-17T11:12:51.868Z,4.73
2019-03-17T11:15:22.195Z,2.73
2019-03-17T11:17:51.623Z,3.60
2019-03-17T11:20:21.095Z,4.80
2019-03-17T11:22:50.895Z,2.87
2019-03-17T11:25:20.810Z,4.20
2019-03-17T11:27:50.276Z,4.63
2019-03-17T11:30:23.155Z,4.37
2019-03-17T11:32:52.932Z,3.33
2019-03-17T11:35:22.392Z,4.33
2019-03-17T11:37:51.850Z,3.30
2019-03-17T11:40:21.775Z,3.70
2019-03-17T11:42:51.226Z,2.97
2019-03-17T11:45:20.870Z,6.97
2019-03-17T11:47:50.797Z,3.43
2019-03-17T11:50:21.167Z,5.93
2019-03-17T11:52:51.022Z,4.27
2019-03-17T11:55:20.709Z,7.40
2019-03-17T11:57:50.185Z,4.47
2019-03-17T12:00:23.503Z,7.12
2019-03-17T12:02:52.969Z,5.65
2019-03-17T12:05:22.435Z,6.80
2019-03-17T12:07:51.903Z,8.45
2019-03-17T12:10:22.545Z,6.15
2019-03-17T12:12:52.010Z,9.03
2019-03-17T12:15:32.367Z,16.10
2019-03-17T12:18:01.812Z,9.57
2019-03-17T12:20:31.268Z,11.27
2019-03-17T12:23:00.721Z,10.83
2019-03-17T12:25:30.190Z,8.90
2019-03-17T12:27:59.899Z,11.17
2019-03-17T12:30:31.337Z,9.70
2019-03-17T12:33:01.160Z,12.57
2019-03-17T12:35:30.891Z,10.18
2019-03-17T12:38:00.491Z,10.93
2019-03-17T12:40:30.266Z,16.75
2019-03-17T12:42:59.715Z,10.90
2019-03-17T12:45:29.168Z,8.18
2019-03-17T12:47:58.627Z,12.65
2019-03-17T12:50:28.282Z,9.60
2019-03-17T12:52:57.937Z,10.80
2019-03-17T12:55:27.401Z,12.77
2019-03-17T12:57:56.870Z,11.48
2019-03-17T13:00:27.183Z,15.43
2019-03-17T13:02:56.636Z,12.97
2019-03-17T13:05:26.170Z,14.07
2019-03-17T13:07:55.632Z,14.00
2019-03-17T13:10:25.138Z,15.53
2019-03-17T13:12:54.588Z,13.93
2019-03-17T13:15:24.194Z,13.60
2019-03-17T13:17:53.806Z,12.73
2019-03-17T13:20:23.702Z,13.33
2019-03-17T13:22:53.160Z,13.43
2019-03-17T13:25:22.624Z,13.83
2019-03-17T13:27:52.087Z,9.20
2019-03-17T13:30:21.823Z,10.57
2019-03-17T13:32:51.284Z,10.13
2019-03-17T13:35:20.831Z,12.17
2019-03-17T13:37:50.304Z,6.53
2019-03-17T13:40:28.709Z,8.57
2019-03-17T13:42:51.663Z,5.40
2019-03-17T13:45:21.256Z,9.90
2019-03-17T13:47:52.987Z,4.53
2019-03-17T13:50:23.923Z,8.93
2019-03-17T13:52:53.354Z,4.97
2019-03-17T13:55:22.852Z,6.87
2019-03-17T13:58:03.335Z,7.10
2019-03-17T14:00:32.804Z,4.30
2019-03-17T14:03:02.248Z,5.43
2019-03-17T14:05:31.775Z,8.00
2019-03-17T14:08:01.521Z,8.83
2019-03-17T14:10:40.518Z,7.00
2019-03-17T14:13:02.300Z,8.70
2019-03-17T14:15:31.795Z,5.73
2019-03-17T14:18:01.243Z,4.97
2019-03-17T14:20:30.729Z,8.13
2019-03-17T14:23:00.174Z,7.23
2019-03-17T14:25:36.632Z,7.33
2019-03-17T14:28:06.366Z,5.20
2019-03-17T14:30:35.838Z,5.93
2019-03-17T14:33:05.453Z,9.10
2019-03-17T14:35:34.972Z,6.13
2019-03-17T14:38:04.584Z,12.93
2019-03-17T14:40:34.410Z,7.67
2019-03-17T14:43:04.189Z,7.50
2019-03-17T14:45:33.646Z,6.73
2019-03-17T14:48:03.088Z,4.87
2019-03-17T14:50:32.554Z,11.90
2019-03-17T14:53:02.370Z,10.33
2019-03-17T14:55:31.825Z,7.90
2019-03-17T14:58:01.351Z,7.57
2019-03-17T15:00:30.825Z,7.27
2019-03-17T15:03:00.370Z,7.87
2019-03-17T15:05:29.893Z,7.93
2019-03-17T15:07:59.355Z,7.13
2019-03-17T15:10:29.014Z,4.80
2019-03-17T15:12:58.698Z,8.83
2019-03-17T15:15:29.044Z,6.07
2019-03-17T15:17:58.497Z,4.47
2019-03-17T15:20:28.243Z,7.97
2019-03-17T15:22:57.763Z,4.00
2019-03-17T15:25:27.316Z,5.50
2019-03-17T15:27:56.837Z,4.03
2019-03-17T15:30:30.291Z,4.37
2019-03-17T15:32:59.839Z,3.37
2019-03-17T15:35:29.305Z,5.53
2019-03-17T15:37:59.036Z,4.17
2019-03-17T15:40:28.842Z,3.80
2019-03-17T15:42:58.327Z,4.90
2019-03-17T15:45:27.789Z,6.00
2019-03-17T15:47:57.488Z,3.13
2019-03-17T15:50:30.480Z,2.03
2019-03-17T15:52:59.932Z,2.90
2019-03-17T15:55:29.419Z,2.13
2019-03-17T15:57:58.936Z,3.27
2019-03-17T16:00:28.738Z,2.97
2019-03-17T16:02:58.611Z,2.73
2019-03-17T16:05:28.097Z,3.33
2019-03-17T16:07:57.593Z,3.03
2019-03-17T16:10:28.678Z,3.33
2019-03-17T16:12:59.105Z,3.60
2019-03-17T16:15:29.734Z,4.73
2019-03-17T16:17:59.489Z,3.47
2019-03-17T16:20:29.612Z,3.57
2019-03-17T16:22:59.057Z,2.30
2019-03-17T16:25:37.020Z,2.90
2019-03-17T16:28:06.643Z,1.87
2019-03-17T16:30:36.462Z,1.50
2019-03-17T16:33:06.245Z,4.53
2019-03-17T16:35:35.764Z,2.90
2019-03-17T16:38:05.288Z,1.70
2019-03-17T16:40:35.692Z,1.50
2019-03-17T16:43:05.965Z,2.00
2019-03-17T16:45:35.497Z,1.77
2019-03-17T16:48:04.971Z,3.17
2019-03-17T16:50:34.853Z,2.60
2019-03-17T16:53:04.469Z,3.13
2019-03-17T16:55:34.183Z,2.63
2019-03-17T16:58:03.675Z,2.73
2019-03-17T17:00:33.134Z,2.57
2019-03-17T17:03:02.903Z,2.07
2019-03-17T17:05:34.911Z,3.17
2019-03-17T17:08:04.049Z,4.10
2019-03-17T17:10:33.525Z,3.93
2019-03-17T17:13:03.180Z,4.47
2019-03-17T17:15:36.095Z,3.70
2019-03-17T17:18:05.557Z,2.83
2019-03-17T17:20:39.094Z,2.17
2019-03-17T17:23:08.650Z,2.20
2019-03-17T17:25:38.091Z,2.67
2019-03-17T17:28:07.977Z,2.97
2019-03-17T17:30:37.505Z,2.90
2019-03-17T17:33:06.981Z,3.17
2019-03-17T17:35:36.441Z,2.10
2019-03-17T17:38:05.908Z,3.73
2019-03-17T17:40:35.402Z,5.00
2019-03-17T17:43:05.159Z,4.70
2019-03-17T17:45:34.616Z,2.20
2019-03-17T17:48:04.168Z,5.07
2019-03-17T17:50:33.875Z,4.00
2019-03-17T17:53:03.331Z,3.07
2019-03-17T17:55:32.775Z,4.90
2019-03-17T17:58:02.569Z,2.70
2019-03-17T18:00:33.652Z,2.87
2019-03-17T18:03:03.131Z,1.47
2019-03-17T18:05:32.586Z,2.90
2019-03-17T18:08:03.601Z,1.87
2019-03-17T18:10:33.223Z,1.77
2019-03-17T18:13:02.689Z,1.77
2019-03-17T18:15:35.054Z,2.23
2019-03-17T18:18:04.523Z,2.67
2019-03-17T18:20:33.963Z,4.00
2019-03-17T18:23:03.435Z,2.80
2019-03-17T18:25:32.866Z,2.67
2019-03-17T18:28:02.319Z,2.90
2019-03-17T18:30:31.768Z,3.67
2019-03-17T18:33:01.214Z,4.77
2019-03-17T18:35:30.648Z,2.50
2019-03-17T18:38:00.177Z,4.47
2019-03-17T18:40:30.407Z,2.80
2019-03-17T18:42:59.864Z,6.30
2019-03-17T18:45:31.100Z,2.70
2019-03-17T18:48:00.563Z,2.63
2019-03-17T18:50:30.275Z,2.50
2019-03-17T18:52:59.726Z,2.80
2019-03-17T18:55:29.194Z,4.20
2019-03-17T18:57:59.051Z,3.50
2019-03-17T19:00:28.558Z,3.57
2019-03-17T19:02:58.037Z,3.57
2019-03-17T19:05:27.665Z,3.93
2019-03-17T19:07:57.107Z,4.07
2019-03-17T19:10:26.555Z,3.90
2019-03-17T19:12:56.044Z,2.27
2019-03-17T19:15:25.489Z,2.47
2019-03-17T19:17:55.562Z,1.97
2019-03-17T19:20:25.071Z,2.67
2019-03-17T19:22:54.540Z,2.13
2019-03-17T19:25:27.187Z,2.33
2019-03-17T19:27:56.652Z,3.30
2019-03-17T19:30:26.107Z,4.07
2019-03-17T19:32:55.551Z,2.27
2019-03-17T19:35:25.025Z,3.17
2019-03-17T19:37:54.473Z,3.13
2019-03-17T19:40:25.059Z,2.80
2019-03-17T19:42:59.226Z,2.93
2019-03-17T19:45:25.746Z,2.13
2019-03-17T19:47:55.388Z,2.53
2019-03-17T19:50:24.836Z,3.77
2019-03-17T19:52:54.296Z,3.10
2019-03-17T19:55:23.739Z,3.37
2019-03-17T19:57:53.208Z,3.27
2019-03-17T20:00:23.407Z,4.80
2019-03-17T20:02:53.256Z,3.77
2019-03-17T20:05:22.763Z,4.97
2019-03-17T20:07:52.554Z,3.50
2019-03-17T20:10:27.110Z,4.27
2019-03-17T20:12:56.747Z,4.47
2019-03-17T20:15:26.201Z,3.07
2019-03-17T20:17:55.645Z,4.37
2019-03-17T20:20:25.087Z,4.40
2019-03-17T20:22:54.571Z,3.80
2019-03-17T20:25:24.027Z,3.47
2019-03-17T20:27:53.557Z,4.27
2019-03-17T20:30:22.998Z,2.40
2019-03-17T20:32:52.901Z,3.37
2019-03-17T20:35:22.356Z,3.70
2019-03-17T20:37:51.800Z,2.33
2019-03-17T20:40:21.571Z,2.67
2019-03-17T20:42:51.012Z,4.23
2019-03-17T20:45:20.836Z,2.40
2019-03-17T20:47:50.368Z,3.03
2019-03-17T20:50:20.085Z,2.87
2019-03-17T20:52:49.526Z,2.77
2019-03-17T20:55:18.988Z,3.80
2019-03-17T20:57:48.690Z,2.90
2019-03-17T21:00:18.775Z,3.50
2019-03-17T21:02:48.218Z,4.73
2019-03-17T21:05:17.662Z,3.83
2019-03-17T21:07:47.456Z,5.43
2019-03-17T21:10:17.440Z,4.03
2019-03-17T21:12:46.875Z,3.20
2019-03-17T21:15:19.511Z,3.77
2019-03-17T21:17:49.256Z,3.90
2019-03-17T21:20:19.968Z,3.07
2019-03-17T21:22:49.420Z,2.87
2019-03-17T21:25:18.901Z,4.20
2019-03-17T21:27:48.740Z,5.43
2019-03-17T21:30:22.620Z,6.73
2019-03-17T21:32:52.442Z,6.73
2019-03-17T21:35:22.087Z,3.43
2019-03-17T21:37:51.893Z,2.90
2019-03-17T21:40:21.347Z,2.73
2019-03-17T21:42:50.795Z,3.53
2019-03-17T21:45:20.266Z,4.57
2019-03-17T21:47:49.990Z,3.00
2019-03-17T21:50:20.632Z,3.60
2019-03-17T21:52:50.055Z,5.63
2019-03-17T21:55:19.515Z,3.73
2019-03-17T21:57:48.950Z,3.23
2019-03-17T22:00:19.262Z,3.43
2019-03-17T22:02:48.981Z,3.83
2019-03-17T22:05:18.490Z,3.40
2019-03-17T22:07:50.940Z,2.87
2019-03-17T22:10:20.267Z,2.37
2019-03-17T22:12:48.832Z,2.03
2019-03-17T22:15:18.471Z,3.73
2019-03-17T22:17:47.907Z,4.00
2019-03-17T22:20:17.624Z,3.87
2019-03-17T22:22:47.243Z,4.50
2019-03-17T22:25:17.189Z,4.13
2019-03-17T22:27:46.623Z,2.40
2019-03-17T22:30:18.311Z,3.77
2019-03-17T22:32:48.023Z,2.70
2019-03-17T22:35:17.803Z,2.47
2019-03-17T22:37:47.236Z,3.47
2019-03-17T22:40:17.402Z,2.30
2019-03-17T22:42:46.845Z,2.20
2019-03-17T22:45:16.565Z,4.53
2019-03-17T22:47:46.158Z,3.87
2019-03-17T22:50:17.939Z,2.37
2019-03-17T22:52:47.687Z,3.10
2019-03-17T22:55:17.293Z,3.23
2019-03-17T22:57:46.738Z,3.13
2019-03-17T23:00:36.404Z,3.07
2019-03-17T23:03:06.114Z,3.00
2019-03-17T23:05:35.625Z,2.83
2019-03-17T23:08:05.060Z,2.60
2019-03-17T23:10:34.548Z,2.93
2019-03-17T23:13:04.007Z,4.47
2019-03-17T23:15:35.751Z,2.67
2019-03-17T23:18:04.815Z,5.00
2019-03-17T23:20:34.607Z,2.37
2019-03-17T23:23:04.049Z,4.20
2019-03-17T23:25:33.523Z,4.37
2019-03-17T23:28:03.134Z,3.10
2019-03-17T23:30:32.645Z,3.37
2019-03-17T23:33:02.177Z,5.07
2019-03-17T23:35:31.618Z,2.80
2019-03-17T23:38:01.339Z,2.53
2019-03-17T23:40:30.791Z,5.07
2019-03-17T23:43:00.235Z,3.77
2019-03-17T23:45:29.688Z,3.80
2019-03-17T23:47:59.146Z,4.03
2019-03-17T23:50:28.586Z,3.30
2019-03-17T23:52:58.402Z,4.63
2019-03-17T23:55:27.902Z,4.70
2019-03-17T23:57:57.696Z,4.67
